»·PEaware :: SWA330 KPHX-KLAX

SWA330 :: KPHX-KLAX

FLIGHT INFORMATION

Flight Status: Arrived
Operator:
Southwest Airlines
More flights by this operator :: More flights under this callsign
Pilot: Cole F. (14495)
Aircraft: BOEING 737-300
(B733)
More flights by this aircraft type
Origin: KPHX Phoenix Sky Harbor Intl
United States
Destination: KLAX Los Angeles Intl
United States
More flights between these airports :: More routes between these airports
Route: +IZZZO6 MESSI ESTWD HLYWD1
File this flight plan on PilotEdge
Remarks:
Altitude:
(Current/Filed)
32,000ft
Speed:
(Current/Filed)
450kts
Departed: 10-Oct-17 09:44 AM
Arrived: 10-Oct-17 10:45 AM
Distance/Time
Traveled:
322nm/1:01
Distance/Time
To Go:
Arrived

Flight Plot

Page will automatically refresh every two minutes.

Flight plan parsing failed; only flown route is shown


Map Options




Map Legend


Flown Route
Filed Route
Departure Airport
Arrival Airport
Navaid (VOR, NDB)
Fix

Horizontal Profiles

Position Reports

Time Latitude Longitude Heading Altitude Ground
Speed
10-Oct-17 09:10 33.434068 -111.996235 285 1116ft 0kts
10-Oct-17 09:11 33.434068 -111.996235 285 1116ft 0kts
10-Oct-17 09:12 33.434068 -111.996235 285 1116ft 0kts
10-Oct-17 09:13 33.434068 -111.996235 285 1116ft 0kts
10-Oct-17 09:14 33.434068 -111.996235 285 1116ft 0kts
10-Oct-17 09:15 33.434068 -111.996235 285 1116ft 0kts
10-Oct-17 09:16 33.434068 -111.996235 285 1116ft 0kts
10-Oct-17 09:17 33.434068 -111.996235 285 1116ft 0kts
10-Oct-17 09:18 33.434068 -111.996235 285 1116ft 0kts
10-Oct-17 09:19 33.434068 -111.996235 285 1116ft 0kts
10-Oct-17 09:20 33.434068 -111.996235 285 1116ft 0kts
10-Oct-17 09:21 33.434068 -111.996235 285 1116ft 0kts
10-Oct-17 09:22 33.434068 -111.996235 285 1116ft 0kts
10-Oct-17 09:23 33.434068 -111.996235 285 1116ft 0kts
10-Oct-17 09:24 33.434068 -111.996235 285 1116ft 0kts
10-Oct-17 09:25 33.434068 -111.996235 285 1116ft 0kts
10-Oct-17 09:26 33.434068 -111.996235 285 1116ft 0kts
10-Oct-17 09:27 33.434068 -111.996235 285 1116ft 0kts
10-Oct-17 09:28 33.434068 -111.996235 285 1116ft 0kts
10-Oct-17 09:29 33.434068 -111.996235 285 1116ft 0kts
10-Oct-17 09:30 33.434068 -111.996235 285 1116ft 0kts
10-Oct-17 09:30 33.434068 -111.996235 285 1116ft 0kts
10-Oct-17 09:32 33.434068 -111.996235 285 1116ft 0kts
10-Oct-17 09:33 33.434068 -111.996235 285 1116ft 0kts
10-Oct-17 09:33 33.434068 -111.996235 285 1116ft 0kts
10-Oct-17 09:35 33.434068 -111.996235 285 1116ft 0kts
10-Oct-17 09:36 33.434068 -111.996235 285 1116ft 0kts
10-Oct-17 09:36 33.434068 -111.996235 285 1116ft 0kts
10-Oct-17 09:38 33.434068 -111.996235 285 1116ft 0kts
10-Oct-17 09:38 33.434068 -111.996235 285 1116ft 0kts
10-Oct-17 09:39 33.434103 -111.995925 235 1116ft 2kts
10-Oct-17 09:40 33.434400 -111.995747 175 1116ft 0kts
10-Oct-17 09:41 33.434399 -111.995747 175 1116ft 0kts
10-Oct-17 09:42 33.432866 -111.995665 169 1116ft 8kts
10-Oct-17 09:43 33.432129 -112.000381 271 1116ft 21kts
10-Oct-17 09:44 33.432148 -112.008577 269 1116ft 27kts
10-Oct-17 09:45 33.432159 -112.016117 270 1116ft 23kts
10-Oct-17 09:46 33.432161 -112.024034 269 1116ft 22kts
10-Oct-17 09:47 33.431071 -112.025062 89 1116ft 33kts
10-Oct-17 09:48 33.431164 -111.984141 88 1849ft 170kts
10-Oct-17 09:49 33.433468 -111.921732 88 3198ft 218kts
10-Oct-17 09:50 33.413210 -111.854563 144 5171ft 239kts
10-Oct-17 09:51 33.356678 -111.871697 245 7613ft 242kts
10-Oct-17 09:52 33.359951 -111.952218 278 10124ft 249kts
10-Oct-17 09:53 33.371726 -112.035582 278 12500ft 259kts
10-Oct-17 09:54 33.383866 -112.121389 278 14882ft 267kts
10-Oct-17 09:55 33.397881 -112.221025 278 15419ft 345kts
10-Oct-17 09:56 33.414186 -112.337663 278 17563ft 363kts
10-Oct-17 09:57 33.430989 -112.458399 279 19822ft 373kts
10-Oct-17 09:58 33.448000 -112.581690 279 22052ft 377kts
10-Oct-17 09:59 33.451740 -112.708185 270 23865ft 386kts
10-Oct-17 10:00 33.464645 -112.836033 291 25535ft 396kts
10-Oct-17 10:01 33.508276 -112.958319 291 27086ft 405kts
10-Oct-17 10:02 33.552223 -113.083838 291 28769ft 407kts
10-Oct-17 10:03 33.595235 -113.207254 291 30591ft 400kts
10-Oct-17 10:04 33.637578 -113.329227 291 32025ft 396kts
10-Oct-17 10:05 33.679868 -113.451646 291 32057ft 396kts
10-Oct-17 10:06 33.721779 -113.573165 291 32051ft 396kts
10-Oct-17 10:07 33.763576 -113.695079 291 32043ft 396kts
10-Oct-17 10:08 33.805266 -113.817644 290 32054ft 396kts
10-Oct-17 10:09 33.846301 -113.939801 291 32107ft 395kts
10-Oct-17 10:10 33.887738 -114.061876 291 32105ft 395kts
10-Oct-17 10:11 33.918107 -114.188181 280 32106ft 394kts
10-Oct-17 10:12 33.939773 -114.317316 281 32105ft 394kts
10-Oct-17 10:13 33.961649 -114.446653 281 32105ft 394kts
10-Oct-17 10:14 33.983386 -114.576105 281 32105ft 394kts
10-Oct-17 10:15 34.004517 -114.704380 280 32099ft 394kts
10-Oct-17 10:16 34.025923 -114.833841 280 32106ft 394kts
10-Oct-17 10:17 34.047181 -114.963067 281 32105ft 394kts
10-Oct-17 10:18 34.068232 -115.093089 280 32104ft 394kts
10-Oct-17 10:19 34.089259 -115.222518 281 32105ft 394kts
10-Oct-17 10:20 34.110438 -115.352301 281 32107ft 394kts
10-Oct-17 10:21 34.131330 -115.481812 281 32183ft 394kts
10-Oct-17 10:22 34.152052 -115.611712 281 32187ft 394kts
10-Oct-17 10:23 34.159730 -115.741978 263 32189ft 396kts
10-Oct-17 10:24 34.146289 -115.873643 264 32185ft 395kts
10-Oct-17 10:25 34.133436 -116.005558 264 32188ft 396kts
10-Oct-17 10:26 34.120477 -116.137032 264 32186ft 395kts
10-Oct-17 10:27 34.107506 -116.268532 264 32187ft 395kts
10-Oct-17 10:28 34.093644 -116.399650 264 31420ft 395kts
10-Oct-17 10:29 34.079457 -116.532167 263 28192ft 399kts
10-Oct-17 10:30 34.066591 -116.660945 264 25899ft 383kts
10-Oct-17 10:31 34.054919 -116.786937 264 23304ft 375kts
10-Oct-17 10:32 34.042744 -116.909290 261 21191ft 357kts
10-Oct-17 10:33 34.027339 -117.027437 261 19702ft 357kts
10-Oct-17 10:34 34.013298 -117.145367 262 17775ft 356kts
10-Oct-17 10:35 33.999606 -117.260334 261 15772ft 341kts
10-Oct-17 10:36 33.986408 -117.371418 261 13820ft 339kts
10-Oct-17 10:37 33.973424 -117.482132 262 12103ft 324kts
10-Oct-17 10:38 33.974058 -117.584193 270 11071ft 282kts
10-Oct-17 10:39 33.975490 -117.674267 269 10269ft 275kts
10-Oct-17 10:40 33.976791 -117.762983 269 9895ft 275kts
10-Oct-17 10:41 33.978057 -117.854310 269 8298ft 269kts
10-Oct-17 10:42 33.979204 -117.942355 269 6908ft 263kts
10-Oct-17 10:43 33.980303 -118.031910 270 5444ft 266kts
10-Oct-17 10:44 33.981595 -118.119456 267 4064ft 257kts
10-Oct-17 10:45 33.972845 -118.202328 263 3306ft 235kts
10-Oct-17 10:46 33.965156 -118.276762 263 2168ft 205kts
10-Oct-17 10:47 33.959121 -118.334912 262 1256ft 146kts
10-Oct-17 10:48 33.954023 -118.383287 262 448ft 145kts
10-Oct-17 10:49 33.949961 -118.422754 263 110ft 18kts

Navigation Log

Ident Type
Flight plan parsing failed, navigation log unavailable